Crevillente, Spain
Current Conditions -  °F | °C
As of 2:00 AM on Monday 24 Nov 2014 (Local Time) from LEAL Reporting Station
Clear Clear  
Wind Chill: 15°   Ceiling: Unl
Heat Index: 15°   Visibility: 6mi
Dew Point:   Wind: 1mph
Humidity: 67%   Direction: NA
Pressure: 29.91"   Gusts: NA
Location:  38.25°N, 0.81°W
Report Text: LEAL 240100Z VRB01KT CAVOK 15/09 Q1013 NOSIG
Loading
Personal Weather Stations






























Interactive Weather Map New forecast layout! Learn more

10-Day Weather Forecast

Advertisements
Track Severe Weather on mobile